Time;durP1;ratioP1;P1;durP2;ratioP2;P2;SDS_P1;SDS_P2;PMS_P1;PMS_P2;Temp;Humidity;BMP_temperature;BMP_pressure;BME280_temperature;BME280_humidity;BME280_pressure;Samples;Min_cycle;Max_cycle;Signal;HPM_P1;HPM_P2
2022/03/28 00:01:00;;;;;;;0.00;0.00;;;;;;;;;;6151258;23;20009;-63
2022/03/28 00:03:25;;;;;;;0.00;0.00;;;;;;;;;;6151220;23;19997;-63
2022/03/28 00:05:50;;;;;;;0.00;0.00;;;;;;;;;;6152233;23;20013;-63
2022/03/28 00:08:16;;;;;;;0.10;0.10;;;;;;;;;;6151859;23;20021;-63
2022/03/28 00:10:41;;;;;;;2.75;1.27;;;;;;;;;;6151933;23;19997;-63
2022/03/28 00:13:06;;;;;;;1.08;0.98;;;;;;;;;;6152687;23;20008;-64
2022/03/28 00:15:31;;;;;;;2.33;2.17;;;;;;;;;;6151767;23;20005;-63
2022/03/28 00:17:57;;;;;;;0.00;0.00;;;;;;;;;;6152530;23;20002;-64
2022/03/28 00:20:23;;;;;;;0.00;0.00;;;;;;;;;;6151685;23;20004;-64
2022/03/28 00:22:48;;;;;;;0.15;0.15;;;;;;;;;;6152384;23;20004;-64
2022/03/28 00:25:13;;;;;;;0.00;0.00;;;;;;;;;;6151123;23;20002;-64
2022/03/28 00:27:39;;;;;;;0.00;0.00;;;;;;;;;;6152447;23;20001;-63
2022/03/28 00:30:08;;;;;;;0.00;0.00;;;;;;;;;;6151432;23;20017;-63
2022/03/28 00:32:33;;;;;;;0.00;0.00;;;;;;;;;;6152101;23;19997;-63
2022/03/28 00:34:59;;;;;;;0.00;0.00;;;;;;;;;;6152581;23;20009;-63
2022/03/28 00:37:25;;;;;;;0.00;0.00;;;;;;;;;;6151590;23;20441;-65
2022/03/28 00:39:50;;;;;;;0.00;0.00;;;;;;;;;;6152244;23;20001;-63
2022/03/28 00:42:15;;;;;;;0.00;0.00;;;;;;;;;;6151680;23;19997;-63
2022/03/28 00:44:40;;;;;;;0.00;0.00;;;;;;;;;;6151733;23;20017;-63
2022/03/28 00:47:06;;;;;;;0.00;0.00;;;;;;;;;;6152367;23;20002;-64
2022/03/28 00:49:31;;;;;;;0.00;0.00;;;;;;;;;;6151729;23;20032;-63
2022/03/28 00:51:57;;;;;;;0.00;0.00;;;;;;;;;;6152666;23;19993;-63
2022/03/28 00:54:22;;;;;;;1.00;1.00;;;;;;;;;;6150743;23;20072;-63
2022/03/28 00:56:48;;;;;;;0.00;0.00;;;;;;;;;;6152151;23;20002;-63
2022/03/28 00:59:13;;;;;;;0.00;0.00;;;;;;;;;;6151222;23;20009;-63
2022/03/28 01:01:38;;;;;;;0.00;0.00;;;;;;;;;;6151528;23;20076;-64
2022/03/28 01:04:06;;;;;;;0.00;0.00;;;;;;;;;;6151441;23;20162;-64
2022/03/28 01:06:32;;;;;;;0.00;0.00;;;;;;;;;;6151495;23;20005;-64
2022/03/28 01:08:57;;;;;;;0.32;0.32;;;;;;;;;;6151700;23;20331;-64
2022/03/28 01:11:24;;;;;;;0.03;0.03;;;;;;;;;;6151427;23;20331;-64
2022/03/28 01:13:49;;;;;;;0.00;0.00;;;;;;;;;;6151922;23;20435;-64
2022/03/28 01:16:14;;;;;;;0.13;0.13;;;;;;;;;;6151325;23;20009;-63
2022/03/28 01:18:47;;;;;;;0.00;0.00;;;;;;;;;;6151781;23;20011;-63
2022/03/28 01:21:12;;;;;;;0.00;0.00;;;;;;;;;;6151418;23;20005;-63
2022/03/28 01:23:39;;;;;;;11.98;10.23;;;;;;;;;;6151622;23;20005;-63
2022/03/28 01:26:04;;;;;;;0.90;0.90;;;;;;;;;;6152131;23;20016;-63
2022/03/28 01:28:29;;;;;;;0.00;0.00;;;;;;;;;;6150934;23;20108;-63
2022/03/28 01:30:55;;;;;;;0.00;0.00;;;;;;;;;;6151748;23;20368;-62
2022/03/28 01:33:20;;;;;;;0.00;0.00;;;;;;;;;;6151489;23;20438;-63
2022/03/28 01:35:45;;;;;;;0.00;0.00;;;;;;;;;;6151538;23;20006;-63
2022/03/28 01:38:14;;;;;;;0.00;0.00;;;;;;;;;;6151133;23;20312;-62
2022/03/28 01:40:47;;;;;;;0.00;0.00;;;;;;;;;;6151742;23;20490;-63
2022/03/28 01:43:12;;;;;;;0.00;0.00;;;;;;;;;;6151179;23;19997;-63
2022/03/28 01:45:38;;;;;;;0.00;0.00;;;;;;;;;;6151163;23;20002;-63
2022/03/28 01:48:03;;;;;;;0.00;0.00;;;;;;;;;;6152021;23;20002;-63
2022/03/28 01:50:28;;;;;;;0.00;0.00;;;;;;;;;;6150879;23;20467;-64
2022/03/28 01:52:54;;;;;;;0.45;0.45;;;;;;;;;;6151793;23;20001;-63
2022/03/28 01:55:19;;;;;;;0.10;0.10;;;;;;;;;;6151293;23;20002;-63
2022/03/28 01:57:45;;;;;;;0.10;0.10;;;;;;;;;;6151328;23;20305;-63
2022/03/28 02:00:12;;;;;;;0.00;0.00;;;;;;;;;;6151564;23;20424;-63
2022/03/28 02:02:37;;;;;;;0.00;0.00;;;;;;;;;;6151323;23;20002;-62
2022/03/28 02:05:09;;;;;;;0.00;0.00;;;;;;;;;;6151699;23;20017;-63
2022/03/28 02:07:35;;;;;;;0.75;0.75;;;;;;;;;;6151137;23;19998;-63
2022/03/28 02:10:00;;;;;;;0.00;0.00;;;;;;;;;;6151192;23;20009;-64
2022/03/28 02:12:25;;;;;;;0.00;0.00;;;;;;;;;;6150924;23;20020;-64
2022/03/28 02:14:50;;;;;;;0.00;0.00;;;;;;;;;;6151665;23;20001;-64
2022/03/28 02:17:16;;;;;;;0.00;0.00;;;;;;;;;;6151144;23;20005;-64
2022/03/28 02:19:41;;;;;;;0.00;0.00;;;;;;;;;;6150773;23;20483;-64
2022/03/28 02:22:07;;;;;;;0.00;0.00;;;;;;;;;;6151496;23;19997;-63
2022/03/28 02:24:32;;;;;;;0.00;0.00;;;;;;;;;;6150251;23;20467;-64
2022/03/28 02:26:57;;;;;;;0.00;0.00;;;;;;;;;;6151795;23;20002;-63
2022/03/28 02:29:22;;;;;;;0.00;0.00;;;;;;;;;;6150228;23;20021;-63
2022/03/28 02:31:48;;;;;;;0.98;0.98;;;;;;;;;;6151482;23;20108;-63
2022/03/28 02:34:13;;;;;;;0.00;0.00;;;;;;;;;;6150348;23;20396;-64
2022/03/28 02:36:39;;;;;;;0.00;0.00;;;;;;;;;;6151284;23;20084;-63
2022/03/28 02:39:05;;;;;;;0.00;0.00;;;;;;;;;;6151090;23;20196;-64
2022/03/28 02:41:33;;;;;;;0.00;0.00;;;;;;;;;;6150446;23;20108;-64
2022/03/28 02:43:58;;;;;;;0.00;0.00;;;;;;;;;;6151277;23;20080;-64
2022/03/28 02:46:23;;;;;;;0.00;0.00;;;;;;;;;;6150742;23;20044;-64
2022/03/28 02:48:48;;;;;;;1.00;1.00;;;;;;;;;;6150669;23;20696;-62
2022/03/28 02:51:14;;;;;;;0.00;0.00;;;;;;;;;;6150689;23;20640;-63
2022/03/28 02:53:39;;;;;;;0.00;0.00;;;;;;;;;;6125031;23;20060;-63
2022/03/28 02:56:04;;;;;;;0.00;0.00;;;;;;;;;;6150756;23;20001;-63
2022/03/28 02:58:29;;;;;;;0.00;0.00;;;;;;;;;;6149765;23;20092;-64
2022/03/28 03:00:55;;;;;;;0.00;0.00;;;;;;;;;;6151180;23;20005;-62
2022/03/28 03:03:20;;;;;;;0.00;0.00;;;;;;;;;;6150657;23;20000;-63
2022/03/28 03:05:46;;;;;;;0.00;0.00;;;;;;;;;;6150935;23;19998;-64
2022/03/28 03:08:11;;;;;;;0.00;0.00;;;;;;;;;;6152588;23;20447;-63
2022/03/28 03:10:36;;;;;;;0.00;0.00;;;;;;;;;;6152457;23;20001;-63
2022/03/28 03:13:02;;;;;;;0.00;0.00;;;;;;;;;;6152898;23;20001;-63
2022/03/28 03:15:27;;;;;;;0.00;0.00;;;;;;;;;;6152637;23;19998;-63
2022/03/28 03:17:52;;;;;;;0.10;0.10;;;;;;;;;;6152637;23;20006;-63
2022/03/28 03:20:17;;;;;;;0.00;0.00;;;;;;;;;;6152120;23;20001;-64
2022/03/28 03:22:43;;;;;;;0.00;0.00;;;;;;;;;;6152951;23;20001;-63
2022/03/28 03:25:08;;;;;;;0.00;0.00;;;;;;;;;;6151830;23;20048;-63
2022/03/28 03:27:37;;;;;;;0.00;0.00;;;;;;;;;;6152493;23;20098;-63
2022/03/28 03:30:04;;;;;;;0.00;0.00;;;;;;;;;;6152144;23;20389;-62
2022/03/28 03:32:30;;;;;;;0.40;0.40;;;;;;;;;;6152233;23;20009;-64
2022/03/28 03:34:55;;;;;;;0.00;0.00;;;;;;;;;;6152928;23;20001;-64
2022/03/28 03:37:20;;;;;;;0.00;0.00;;;;;;;;;;6152621;23;20006;-64
2022/03/28 03:39:45;;;;;;;0.00;0.00;;;;;;;;;;6152691;23;20442;-64
2022/03/28 03:42:11;;;;;;;0.00;0.00;;;;;;;;;;6126776;23;20012;-62
2022/03/28 03:44:36;;;;;;;0.00;0.00;;;;;;;;;;6152053;23;20013;-63
2022/03/28 03:47:01;;;;;;;0.00;0.00;;;;;;;;;;6151880;23;20002;-63
2022/03/28 03:49:27;;;;;;;0.00;0.00;;;;;;;;;;6152126;23;20008;-63
2022/03/28 03:51:52;;;;;;;0.00;0.00;;;;;;;;;;6152548;23;19994;-63
2022/03/28 03:54:17;;;;;;;0.00;0.00;;;;;;;;;;6151796;23;19997;-63
2022/03/28 03:56:43;;;;;;;0.00;0.00;;;;;;;;;;6151286;23;19997;-63
2022/03/28 03:59:08;;;;;;;0.00;0.00;;;;;;;;;;6151951;23;20012;-64
2022/03/28 04:01:34;;;;;;;0.30;0.30;;;;;;;;;;6151860;23;20072;-63
2022/03/28 04:03:59;;;;;;;1.77;1.77;;;;;;;;;;6151458;23;19997;-63
2022/03/28 04:06:24;;;;;;;0.00;0.00;;;;;;;;;;6151613;23;20002;-62
2022/03/28 04:08:49;;;;;;;0.00;0.00;;;;;;;;;;6152423;23;20305;-63
2022/03/28 04:11:15;;;;;;;0.00;0.00;;;;;;;;;;6151293;23;19993;-63
2022/03/28 04:13:40;;;;;;;0.00;0.00;;;;;;;;;;6151462;23;20351;-63
2022/03/28 04:16:06;;;;;;;0.00;0.00;;;;;;;;;;6151531;23;20044;-63
2022/03/28 04:18:31;;;;;;;0.00;0.00;;;;;;;;;;6151041;23;20024;-63
2022/03/28 04:20:56;;;;;;;0.00;0.00;;;;;;;;;;6151882;23;19998;-64
2022/03/28 04:23:22;;;;;;;0.00;0.00;;;;;;;;;;6151329;23;20165;-64
2022/03/28 04:25:47;;;;;;;0.47;0.47;;;;;;;;;;6151331;23;20463;-63
2022/03/28 04:28:13;;;;;;;0.00;0.00;;;;;;;;;;6125474;23;20093;-64
2022/03/28 04:30:38;;;;;;;0.00;0.00;;;;;;;;;;6151625;23;20320;-64
2022/03/28 04:33:04;;;;;;;0.00;0.00;;;;;;;;;;6151627;23;20006;-63
2022/03/28 04:35:30;;;;;;;0.15;0.15;;;;;;;;;;6150733;23;20001;-63
2022/03/28 04:37:55;;;;;;;0.00;0.00;;;;;;;;;;6151447;23;20036;-63
2022/03/28 04:40:20;;;;;;;0.00;0.00;;;;;;;;;;6151320;23;20025;-63
2022/03/28 04:42:46;;;;;;;0.00;0.00;;;;;;;;;;6151841;23;20025;-63
2022/03/28 04:45:11;;;;;;;0.00;0.00;;;;;;;;;;6150565;23;20012;-63
2022/03/28 04:47:37;;;;;;;0.00;0.00;;;;;;;;;;6151156;23;20001;-63
2022/03/28 04:50:03;;;;;;;0.40;0.40;;;;;;;;;;6151231;23;20068;-63
2022/03/28 04:52:28;;;;;;;0.00;0.00;;;;;;;;;;6151152;23;20423;-63
2022/03/28 04:54:53;;;;;;;0.80;0.80;;;;;;;;;;6151211;23;20008;-64
2022/03/28 04:57:19;;;;;;;0.00;0.00;;;;;;;;;;6125050;23;20080;-64
2022/03/28 04:59:44;;;;;;;0.00;0.00;;;;;;;;;;6151734;23;20005;-64
2022/03/28 05:02:09;;;;;;;0.00;0.00;;;;;;;;;;6151466;23;20019;-64
2022/03/28 05:04:35;;;;;;;0.00;0.00;;;;;;;;;;6150397;23;20081;-63
2022/03/28 05:07:00;;;;;;;0.00;0.00;;;;;;;;;;6124186;23;19997;-63
2022/03/28 05:09:25;;;;;;;0.00;0.00;;;;;;;;;;6150806;23;20001;-63
2022/03/28 05:11:50;;;;;;;0.00;0.00;;;;;;;;;;6150583;23;20011;-63
2022/03/28 05:14:16;;;;;;;0.75;0.75;;;;;;;;;;6150569;23;20005;-63
2022/03/28 05:16:41;;;;;;;0.00;0.00;;;;;;;;;;6150828;23;20305;-64
2022/03/28 05:19:06;;;;;;;0.00;0.00;;;;;;;;;;6150990;23;20002;-63
2022/03/28 05:21:32;;;;;;;0.00;0.00;;;;;;;;;;6150277;23;20476;-62
2022/03/28 05:23:57;;;;;;;0.00;0.00;;;;;;;;;;6150665;23;20001;-63
2022/03/28 05:26:22;;;;;;;0.00;0.00;;;;;;;;;;6124107;23;20002;-64
2022/03/28 05:28:47;;;;;;;0.00;0.00;;;;;;;;;;6150664;23;20066;-64
2022/03/28 05:31:13;;;;;;;0.10;0.10;;;;;;;;;;6150763;23;20696;-64
2022/03/28 05:33:38;;;;;;;0.00;0.00;;;;;;;;;;6149759;23;20430;-62
2022/03/28 05:36:04;;;;;;;2.40;2.05;;;;;;;;;;6151479;23;20005;-63
2022/03/28 05:38:29;;;;;;;0.00;0.00;;;;;;;;;;6150282;23;20376;-64
2022/03/28 05:40:57;;;;;;;0.20;0.20;;;;;;;;;;6149977;23;20036;-63
2022/03/28 05:43:23;;;;;;;0.90;0.90;;;;;;;;;;6150147;23;20454;-65
2022/03/28 05:45:49;;;;;;;0.00;0.00;;;;;;;;;;6150363;23;20005;-65
2022/03/28 05:48:14;;;;;;;0.10;0.10;;;;;;;;;;6124668;23;20645;-63
2022/03/28 05:50:40;;;;;;;0.00;0.00;;;;;;;;;;6150304;23;19994;-62
2022/03/28 05:53:05;;;;;;;0.00;0.00;;;;;;;;;;6147547;23;20087;-63
2022/03/28 05:55:30;;;;;;;0.00;0.00;;;;;;;;;;6144802;23;20035;-63
2022/03/28 05:57:55;;;;;;;0.00;0.00;;;;;;;;;;6148858;23;20044;-63
2022/03/28 06:00:21;;;;;;;0.65;0.65;;;;;;;;;;6150008;23;20032;-62
2022/03/28 06:02:46;;;;;;;0.00;0.00;;;;;;;;;;6150388;23;20017;-63
2022/03/28 06:05:12;;;;;;;0.00;0.00;;;;;;;;;;6150585;23;20092;-63
2022/03/28 06:07:37;;;;;;;0.00;0.00;;;;;;;;;;6150072;23;19997;-63
2022/03/28 06:10:03;;;;;;;0.10;0.10;;;;;;;;;;6150048;23;19997;-63
2022/03/28 06:12:28;;;;;;;0.10;0.10;;;;;;;;;;6150047;23;19997;-63
2022/03/28 06:14:53;;;;;;;0.03;0.03;;;;;;;;;;6150391;23;20044;-63
2022/03/28 06:17:22;;;;;;;0.00;0.00;;;;;;;;;;6150975;23;20002;-63
2022/03/28 06:19:47;;;;;;;0.00;0.00;;;;;;;;;;6151397;23;20002;-63
2022/03/28 06:22:12;;;;;;;0.00;0.00;;;;;;;;;;6151109;23;20703;-62
2022/03/28 06:24:38;;;;;;;0.00;0.00;;;;;;;;;;6149373;23;20006;-63
2022/03/28 06:27:03;;;;;;;0.70;0.70;;;;;;;;;;6150403;23;20305;-61
2022/03/28 06:29:28;;;;;;;0.03;0.03;;;;;;;;;;6149348;23;20580;-62
2022/03/28 06:31:53;;;;;;;0.00;0.00;;;;;;;;;;6123960;23;20506;-62
2022/03/28 06:34:18;;;;;;;0.00;0.00;;;;;;;;;;6150444;23;20028;-62
2022/03/28 06:36:45;;;;;;;0.00;0.00;;;;;;;;;;6123831;23;20018;-62
2022/03/28 06:39:11;;;;;;;0.08;0.08;;;;;;;;;;6123593;23;20415;-62
2022/03/28 06:41:36;;;;;;;0.00;0.00;;;;;;;;;;6149293;23;20040;-63
2022/03/28 06:44:01;;;;;;;0.00;0.00;;;;;;;;;;6150226;23;20009;-61
2022/03/28 06:46:26;;;;;;;0.00;0.00;;;;;;;;;;6149341;23;20106;-62
2022/03/28 06:48:54;;;;;;;0.00;0.00;;;;;;;;;;6124290;23;20005;-62
2022/03/28 06:51:19;;;;;;;1.55;1.02;;;;;;;;;;6150462;23;20005;-62
2022/03/28 06:53:49;;;;;;;0.60;0.60;;;;;;;;;;6149351;23;19998;-62
2022/03/28 06:56:14;;;;;;;0.00;0.00;;;;;;;;;;6150375;23;20176;-61
2022/03/28 06:58:40;;;;;;;0.00;0.00;;;;;;;;;;6148965;23;20084;-62
2022/03/28 07:01:05;;;;;;;0.00;0.00;;;;;;;;;;6150360;23;19998;-62
2022/03/28 07:03:30;;;;;;;0.00;0.00;;;;;;;;;;6150083;23;20040;-62
2022/03/28 07:05:56;;;;;;;0.00;0.00;;;;;;;;;;6150083;23;20013;-62
2022/03/28 07:08:22;;;;;;;0.00;0.00;;;;;;;;;;6149723;23;20085;-62
2022/03/28 07:10:47;;;;;;;0.00;0.00;;;;;;;;;;6150585;23;20069;-62
2022/03/28 07:13:12;;;;;;;0.00;0.00;;;;;;;;;;6150124;23;20430;-63
2022/03/28 07:15:38;;;;;;;0.50;0.50;;;;;;;;;;6150114;23;20005;-61
2022/03/28 07:18:06;;;;;;;0.00;0.00;;;;;;;;;;6150433;23;20021;-62
2022/03/28 07:20:31;;;;;;;0.10;0.10;;;;;;;;;;6123607;23;20005;-61
2022/03/28 07:22:57;;;;;;;0.00;0.00;;;;;;;;;;6149749;23;20002;-62
2022/03/28 07:25:23;;;;;;;0.47;0.47;;;;;;;;;;6149756;23;20431;-61
2022/03/28 07:27:50;;;;;;;0.30;0.30;;;;;;;;;;6150427;23;20004;-61
2022/03/28 07:30:17;;;;;;;0.00;0.00;;;;;;;;;;6149603;23;20453;-61
2022/03/28 07:32:42;;;;;;;0.90;0.90;;;;;;;;;;6150035;23;20890;-61
2022/03/28 07:35:08;;;;;;;0.00;0.00;;;;;;;;;;6150106;23;19997;-61
2022/03/28 07:37:34;;;;;;;0.00;0.00;;;;;;;;;;6149250;23;20008;-62
2022/03/28 07:40:00;;;;;;;0.00;0.00;;;;;;;;;;6149739;23;20076;-62
2022/03/28 07:42:25;;;;;;;0.00;0.00;;;;;;;;;;6149967;23;20069;-61
2022/03/28 07:44:55;;;;;;;0.00;0.00;;;;;;;;;;6150193;23;20069;-62
2022/03/28 07:47:20;;;;;;;2.00;1.92;;;;;;;;;;6150501;23;20010;-62
2022/03/28 07:49:46;;;;;;;0.00;0.00;;;;;;;;;;6149658;23;20029;-62
2022/03/28 07:52:12;;;;;;;2.03;1.45;;;;;;;;;;6150296;23;20080;-62
2022/03/28 07:54:37;;;;;;;0.00;0.00;;;;;;;;;;6150428;23;20450;-61
2022/03/28 07:57:03;;;;;;;0.40;0.40;;;;;;;;;;6151537;23;19997;-61
2022/03/28 07:59:29;;;;;;;0.28;0.28;;;;;;;;;;6151400;23;20435;-61
2022/03/28 08:01:54;;;;;;;1.13;1.02;;;;;;;;;;6152085;23;20013;-61
2022/03/28 08:04:19;;;;;;;0.00;0.00;;;;;;;;;;6152155;23;20319;-61
2022/03/28 08:06:45;;;;;;;0.00;0.00;;;;;;;;;;6150792;23;20004;-61
2022/03/28 08:09:10;;;;;;;0.00;0.00;;;;;;;;;;6152572;23;20008;-61
2022/03/28 08:11:35;;;;;;;0.00;0.00;;;;;;;;;;6151809;23;20457;-61
2022/03/28 08:14:01;;;;;;;2.33;2.33;;;;;;;;;;6152431;23;20009;-62
2022/03/28 08:16:27;;;;;;;0.00;0.00;;;;;;;;;;6151767;23;20010;-61
2022/03/28 08:18:52;;;;;;;0.00;0.00;;;;;;;;;;6152138;23;20005;-63
2022/03/28 08:21:17;;;;;;;0.27;0.27;;;;;;;;;;6152344;23;20045;-61
2022/03/28 08:23:42;;;;;;;2.10;2.00;;;;;;;;;;6151314;23;20646;-61
2022/03/28 08:26:08;;;;;;;0.00;0.00;;;;;;;;;;6152311;23;20056;-61
2022/03/28 08:28:34;;;;;;;0.00;0.00;;;;;;;;;;6151276;23;20395;-61
2022/03/28 08:30:59;;;;;;;0.00;0.00;;;;;;;;;;6152282;23;20427;-60
2022/03/28 08:33:24;;;;;;;1.00;1.00;;;;;;;;;;6151184;23;20009;-62
2022/03/28 08:35:50;;;;;;;0.00;0.00;;;;;;;;;;6151317;23;20048;-62
2022/03/28 08:38:15;;;;;;;1.38;1.20;;;;;;;;;;6151029;23;19997;-62
2022/03/28 08:40:41;;;;;;;0.00;0.00;;;;;;;;;;6150908;23;20321;-62
2022/03/28 08:43:07;;;;;;;0.17;0.17;;;;;;;;;;6151463;23;20228;-62
2022/03/28 08:45:35;;;;;;;0.20;0.20;;;;;;;;;;6151009;23;20363;-62
2022/03/28 08:48:01;;;;;;;1.30;1.20;;;;;;;;;;6151517;23;19993;-61
2022/03/28 08:50:27;;;;;;;0.00;0.00;;;;;;;;;;6151171;23;19998;-62
2022/03/28 08:52:52;;;;;;;2.28;1.08;;;;;;;;;;6151309;23;20005;-63
2022/03/28 08:55:19;;;;;;;6.10;1.98;;;;;;;;;;6151872;23;20013;-61
2022/03/28 08:57:44;;;;;;;0.63;0.47;;;;;;;;;;6124224;23;20109;-62
2022/03/28 09:00:10;;;;;;;0.52;0.52;;;;;;;;;;6151408;23;20397;-62
2022/03/28 09:02:39;;;;;;;0.32;0.32;;;;;;;;;;6150575;23;20009;-61
2022/03/28 09:05:04;;;;;;;1.20;0.85;;;;;;;;;;6151021;23;20001;-62
2022/03/28 09:07:30;;;;;;;0.00;0.00;;;;;;;;;;6150476;23;19993;-62
2022/03/28 09:09:59;;;;;;;0.10;0.10;;;;;;;;;;6151604;23;20072;-62
2022/03/28 09:12:24;;;;;;;;;;;;;;;;;;6151012;23;20001;-61
2022/03/28 09:14:55;;;;;;;0.00;0.00;;;;;;;;;;6151367;23;19927;-61
2022/03/28 09:17:21;;;;;;;0.50;0.45;;;;;;;;;;6151005;23;20693;-60
2022/03/28 09:20:06;;;;;;;0.00;0.00;;;;;;;;;;6150531;23;20089;-61
2022/03/28 09:22:34;;;;;;;0.35;0.35;;;;;;;;;;6149637;23;20012;-62
2022/03/28 09:25:01;;;;;;;0.00;0.00;;;;;;;;;;6151275;23;20009;-62
2022/03/28 09:27:26;;;;;;;0.20;0.20;;;;;;;;;;6150451;23;20045;-62
2022/03/28 09:30:12;;;;;;;1.48;1.38;;;;;;;;;;6150555;23;20020;-61
2022/03/28 09:32:41;;;;;;;0.00;0.00;;;;;;;;;;6149180;23;20010;-62
2022/03/28 09:35:06;;;;;;;0.05;0.05;;;;;;;;;;6151117;23;20002;-62
2022/03/28 09:37:46;;;;;;;0.10;0.10;;;;;;;;;;6150449;23;20001;-62
2022/03/28 09:40:21;;;;;;;2.53;2.42;;;;;;;;;;6151121;23;20339;-62
2022/03/28 09:42:50;;;;;;;0.13;0.13;;;;;;;;;;6150124;23;20088;-62
2022/03/28 09:45:19;;;;;;;2.42;2.42;;;;;;;;;;6151266;23;20006;-62
2022/03/28 09:48:01;;;;;;;0.65;0.65;;;;;;;;;;6124236;23;20032;-61
2022/03/28 09:50:27;;;;;;;0.00;0.00;;;;;;;;;;6150484;23;19994;-62
2022/03/28 09:52:53;;;;;;;0.22;0.22;;;;;;;;;;6151039;23;20005;-62
2022/03/28 09:55:18;;;;;;;0.10;0.10;;;;;;;;;;6150804;23;20284;-62
2022/03/28 09:57:43;;;;;;;0.00;0.00;;;;;;;;;;6150006;23;20442;-62
2022/03/28 10:00:17;;;;;;;0.00;0.00;;;;;;;;;;6150446;23;20020;-62
2022/03/28 10:02:42;;;;;;;4.88;4.50;;;;;;;;;;6124275;23;20002;-63
2022/03/28 10:05:08;;;;;;;0.00;0.00;;;;;;;;;;6150982;23;20007;-62
2022/03/28 10:07:33;;;;;;;0.00;0.00;;;;;;;;;;6149684;23;19997;-62
2022/03/28 10:09:59;;;;;;;0.00;0.00;;;;;;;;;;6150760;23;20021;-63
2022/03/28 10:12:25;;;;;;;0.00;0.00;;;;;;;;;;6150829;23;19997;-62
2022/03/28 10:14:54;;;;;;;0.45;0.45;;;;;;;;;;6150941;23;20001;-61
2022/03/28 10:17:19;;;;;;;1.45;0.60;;;;;;;;;;6150825;23;20332;-61
2022/03/28 10:19:45;;;;;;;0.00;0.00;;;;;;;;;;6149883;23;20005;-62
2022/03/28 10:22:13;;;;;;;0.00;0.00;;;;;;;;;;6151037;23;20008;-62
2022/03/28 10:24:40;;;;;;;0.00;0.00;;;;;;;;;;6150465;23;20707;-62
2022/03/28 10:27:06;;;;;;;0.00;0.00;;;;;;;;;;6098646;23;20400;-63
2022/03/28 10:29:36;;;;;;;0.00;0.00;;;;;;;;;;6149561;23;20024;-63
2022/03/28 10:32:22;;;;;;;0.00;0.00;;;;;;;;;;6150645;23;20450;-61
2022/03/28 10:34:48;;;;;;;0.00;0.00;;;;;;;;;;6150400;23;20009;-54
2022/03/28 10:37:24;;;;;;;3.03;0.80;;;;;;;;;;6152123;23;19993;-56
2022/03/28 10:39:49;;;;;;;0.00;0.00;;;;;;;;;;6152307;23;20439;-56
2022/03/28 10:42:18;;;;;;;0.00;0.00;;;;;;;;;;6152173;23;19998;-55
2022/03/28 10:44:45;;;;;;;0.10;0.10;;;;;;;;;;6152014;23;19997;-56
2022/03/28 10:47:13;;;;;;;0.00;0.00;;;;;;;;;;6152328;23;20004;-55
2022/03/28 10:49:40;;;;;;;0.00;0.00;;;;;;;;;;6151797;23;20116;-55
2022/03/28 10:52:05;;;;;;;1.23;1.23;;;;;;;;;;6152141;23;20011;-57
2022/03/28 10:54:37;;;;;;;8.70;1.20;;;;;;;;;;6152103;23;20060;-54
2022/03/28 10:57:04;;;;;;;0.00;0.00;;;;;;;;;;6152027;23;20225;-56
2022/03/28 10:59:30;;;;;;;4.20;1.58;;;;;;;;;;6151949;23;20020;-56
2022/03/28 11:01:56;;;;;;;1.45;1.40;;;;;;;;;;6126453;23;20139;-55
2022/03/28 11:04:23;;;;;;;1.17;1.10;;;;;;;;;;6152843;23;20024;-55
2022/03/28 11:07:05;;;;;;;0.20;0.20;;;;;;;;;;6151847;23;20001;-53
2022/03/28 11:09:43;;;;;;;0.00;0.00;;;;;;;;;;6152327;23;20324;-55
2022/03/28 11:12:13;;;;;;;1.00;1.00;;;;;;;;;;6151961;23;19998;-55
2022/03/28 11:14:39;;;;;;;0.40;0.40;;;;;;;;;;6151843;23;20060;-53
2022/03/28 11:17:24;;;;;;;0.00;0.00;;;;;;;;;;6152810;23;20486;-53
2022/03/28 11:19:58;;;;;;;0.00;0.00;;;;;;;;;;6151813;23;20007;-56
2022/03/28 11:22:38;;;;;;;1.92;1.92;;;;;;;;;;6151316;23;20005;-56
2022/03/28 11:25:04;;;;;;;1.08;0.43;;;;;;;;;;6151824;23;20005;-56
2022/03/28 11:27:30;;;;;;;0.00;0.00;;;;;;;;;;6150927;23;20010;-55
2022/03/28 11:30:00;;;;;;;2.55;2.45;;;;;;;;;;6152262;23;20024;-56
2022/03/28 11:32:25;;;;;;;;;;;;;;;;;;6154130;23;20009;-54
2022/03/28 11:34:51;;;;;;;0.00;0.00;;;;;;;;;;6153926;23;20275;-56
2022/03/28 11:37:18;;;;;;;0.63;0.63;;;;;;;;;;6149608;23;20002;-54
2022/03/28 11:39:52;;;;;;;1.02;1.02;;;;;;;;;;6152612;23;20006;-55
2022/03/28 11:42:22;;;;;;;1.50;0.88;;;;;;;;;;6153101;23;19998;-56
2022/03/28 11:44:47;;;;;;;0.70;0.70;;;;;;;;;;6150873;23;20036;-56
2022/03/28 11:47:17;;;;;;;0.95;0.32;;;;;;;;;;6152677;23;20326;-53
2022/03/28 11:49:59;;;;;;;0.00;0.00;;;;;;;;;;6153419;23;20001;-55
2022/03/28 11:52:26;;;;;;;0.00;0.00;;;;;;;;;;6153712;23;20331;-55
2022/03/28 11:54:51;;;;;;;0.00;0.00;;;;;;;;;;6153317;23;20081;-56
2022/03/28 11:58:23;;;;;;;0.00;0.00;;;;;;;;;;6152573;23;20489;-51
2022/03/28 12:00:21;;;;;;;0.80;0.80;;;;;;;;;;6127293;23;20096;-57
2022/03/28 12:02:51;;;;;;;1.27;1.23;;;;;;;;;;6152964;23;20011;-55
2022/03/28 12:05:25;;;;;;;2.97;0.77;;;;;;;;;;6153337;23;20001;-56
2022/03/28 12:07:51;;;;;;;1.13;1.02;;;;;;;;;;6152503;23;19993;-56
2022/03/28 12:10:16;;;;;;;0.00;0.00;;;;;;;;;;6153394;23;19998;-54
2022/03/28 12:12:42;;;;;;;0.00;0.00;;;;;;;;;;6152631;23;20486;-55
2022/03/28 12:15:11;;;;;;;0.00;0.00;;;;;;;;;;6153528;23;20040;-56
2022/03/28 12:17:37;;;;;;;1.95;1.85;;;;;;;;;;6152467;23;20001;-54
2022/03/28 12:20:06;;;;;;;0.00;0.00;;;;;;;;;;6152559;23;20059;-56
2022/03/28 12:22:42;;;;;;;0.88;0.88;;;;;;;;;;6152366;23;20025;-55
2022/03/28 12:25:08;;;;;;;4.05;3.70;;;;;;;;;;6125902;23;20009;-57
2022/03/28 12:27:33;;;;;;;0.00;0.00;;;;;;;;;;6151147;23;19998;-56
2022/03/28 12:30:02;;;;;;;0.00;0.00;;;;;;;;;;6151925;23;20026;-57
2022/03/28 12:32:27;;;;;;;0.00;0.00;;;;;;;;;;6151517;23;20007;-57
2022/03/28 12:34:52;;;;;;;0.00;0.00;;;;;;;;;;6151384;23;20029;-58
2022/03/28 12:37:18;;;;;;;2.60;1.13;;;;;;;;;;6152318;23;20013;-56
2022/03/28 12:39:43;;;;;;;0.30;0.30;;;;;;;;;;6151716;23;20487;-57
2022/03/28 12:42:08;;;;;;;1.15;1.15;;;;;;;;;;6152400;23;20001;-56
2022/03/28 12:44:34;;;;;;;0.08;0.08;;;;;;;;;;6151861;23;20008;-55
2022/03/28 12:47:05;;;;;;;0.00;0.00;;;;;;;;;;6152349;23;19998;-56
2022/03/28 12:49:39;;;;;;;0.00;0.00;;;;;;;;;;6151847;23;20000;-57
2022/03/28 12:52:08;;;;;;;0.00;0.00;;;;;;;;;;6153350;23;19998;-56
2022/03/28 12:54:34;;;;;;;0.40;0.40;;;;;;;;;;6152647;23;20002;-57
2022/03/28 12:56:59;;;;;;;1.00;1.00;;;;;;;;;;6153087;23;20080;-57
2022/03/28 12:59:27;;;;;;;1.00;1.00;;;;;;;;;;6153167;23;20002;-54
2022/03/28 13:02:04;;;;;;;0.93;0.93;;;;;;;;;;6152207;23;20077;-55
2022/03/28 13:04:29;;;;;;;0.00;0.00;;;;;;;;;;6152507;23;20006;-57
2022/03/28 13:07:01;;;;;;;1.65;0.88;;;;;;;;;;6151298;23;20005;-55
2022/03/28 13:09:32;;;;;;;0.00;0.00;;;;;;;;;;6152237;23;20020;-57
2022/03/28 13:12:07;;;;;;;0.15;0.15;;;;;;;;;;6152182;23;20051;-55
2022/03/28 13:14:32;;;;;;;0.13;0.13;;;;;;;;;;6151682;23;20012;-55
2022/03/28 13:17:07;;;;;;;7.93;7.22;;;;;;;;;;6152300;23;20332;-54
2022/03/28 13:19:33;;;;;;;0.00;0.00;;;;;;;;;;6152156;23;20025;-57
2022/03/28 13:21:58;;;;;;;1.10;1.10;;;;;;;;;;6127242;23;20044;-58
2022/03/28 13:24:27;;;;;;;0.50;0.50;;;;;;;;;;6153580;23;20006;-56
2022/03/28 13:28:01;;;;;;;0.20;0.20;;;;;;;;;;6152561;23;20320;-57
2022/03/28 13:29:39;;;;;;;0.10;0.10;;;;;;;;;;6151736;23;20017;-55
2022/03/28 13:32:04;;;;;;;1.15;1.08;;;;;;;;;;6152383;23;20040;-58
2022/03/28 13:34:29;;;;;;;0.00;0.00;;;;;;;;;;6151895;23;20395;-56
2022/03/28 13:36:55;;;;;;;0.00;0.00;;;;;;;;;;6151658;23;20077;-57
2022/03/28 13:39:20;;;;;;;0.00;0.00;;;;;;;;;;6152498;23;20076;-58
2022/03/28 13:41:45;;;;;;;2.47;2.28;;;;;;;;;;6151855;23;20085;-58
2022/03/28 13:44:11;;;;;;;0.10;0.10;;;;;;;;;;6152289;23;20323;-57
2022/03/28 13:46:37;;;;;;;0.00;0.00;;;;;;;;;;6150689;23;19998;-58
2022/03/28 13:49:03;;;;;;;0.00;0.00;;;;;;;;;;6151777;23;20415;-57
2022/03/28 13:51:28;;;;;;;0.00;0.00;;;;;;;;;;6151375;23;19993;-56
2022/03/28 13:53:57;;;;;;;0.10;0.10;;;;;;;;;;6151621;23;20002;-62
2022/03/28 13:56:23;;;;;;;0.30;0.30;;;;;;;;;;6151821;23;20000;-58
2022/03/28 13:58:48;;;;;;;0.00;0.00;;;;;;;;;;6150920;23;19997;-57
2022/03/28 14:01:14;;;;;;;0.05;0.05;;;;;;;;;;6151763;23;20042;-54
2022/03/28 14:03:39;;;;;;;1.17;1.08;;;;;;;;;;6151308;23;20001;-51
2022/03/28 14:06:04;;;;;;;0.47;0.47;;;;;;;;;;6151826;23;20015;-56
2022/03/28 14:08:34;;;;;;;1.65;1.55;;;;;;;;;;6151352;23;20032;-55
2022/03/28 14:10:59;;;;;;;4.82;4.60;;;;;;;;;;6151234;23;20009;-54
2022/03/28 14:13:25;;;;;;;0.00;0.00;;;;;;;;;;6150969;23;19997;-54
2022/03/28 14:15:50;;;;;;;3.83;3.42;;;;;;;;;;6150954;23;20077;-53
2022/03/28 14:18:17;;;;;;;0.28;0.28;;;;;;;;;;6151561;23;20002;-56
2022/03/28 14:20:43;;;;;;;0.45;0.45;;;;;;;;;;6150836;23;20029;-55
2022/03/28 14:23:10;;;;;;;0.00;0.00;;;;;;;;;;6151387;23;20005;-57
2022/03/28 14:25:35;;;;;;;0.00;0.00;;;;;;;;;;6150567;23;20408;-55
2022/03/28 14:28:00;;;;;;;2.10;2.10;;;;;;;;;;6151370;23;20025;-55
2022/03/28 14:30:25;;;;;;;0.43;0.30;;;;;;;;;;6125193;23;20025;-53
2022/03/28 14:32:51;;;;;;;0.00;0.00;;;;;;;;;;6150936;23;20442;-55
2022/03/28 14:35:17;;;;;;;0.00;0.00;;;;;;;;;;6151319;23;20387;-55
2022/03/28 14:37:43;;;;;;;0.00;0.00;;;;;;;;;;6150549;23;20031;-56
2022/03/28 14:40:09;;;;;;;2.60;2.33;;;;;;;;;;6151824;23;20001;-56